Time,TemperatureF,DewpointF,PressureIn,WindDirection,WindDirectionDegrees,WindSpeedMPH,WindSpeedGustMPH,Humidity,HourlyPrecipIn,Conditions,Clouds,dailyrainin,SolarRadiationWatts/m^2,SoftwareType,DateUTC
2013-02-12 00:01:00,52.0,19.0,-100.00,North,6,5.0,8.0,27,0.00,,,0.00,1.000000,,2013-02-12 07:01:00,
2013-02-12 00:11:00,52.0,19.0,-100.00,North,6,5.0,8.0,27,0.00,,,0.00,1.000000,,2013-02-12 07:11:00,
2013-02-12 00:42:00,46.0,23.0,-100.00,NNW,336,3.0,6.0,40,0.00,,,0.00,1.000000,,2013-02-12 07:42:00,
2013-02-12 00:52:00,46.0,23.0,-100.00,NNW,336,3.0,6.0,40,0.00,,,0.00,1.000000,,2013-02-12 07:52:00,
2013-02-12 01:01:00,46.0,23.0,-100.00,NNW,336,3.0,6.0,40,0.00,,,0.00,1.000000,,2013-02-12 08:01:00,
2013-02-12 01:11:00,46.0,23.0,-100.00,NNW,336,3.0,6.0,40,0.00,,,0.00,1.000000,,2013-02-12 08:11:00,
2013-02-12 01:42:00,48.0,19.0,-100.00,North,350,4.0,6.0,31,0.00,,,0.00,1.000000,,2013-02-12 08:42:00,
2013-02-12 01:52:00,48.0,19.0,-100.00,North,350,4.0,6.0,31,0.00,,,0.00,1.000000,,2013-02-12 08:52:00,
2013-02-12 02:01:00,48.0,19.0,-100.00,North,350,4.0,6.0,31,0.00,,,0.00,1.000000,,2013-02-12 09:01:00,
2013-02-12 02:11:00,48.0,19.0,-100.00,North,350,4.0,6.0,31,0.00,,,0.00,1.000000,,2013-02-12 09:11:00,
2013-02-12 02:42:00,43.0,24.0,-100.00,South,184,2.0,5.0,47,0.00,,,0.00,1.000000,,2013-02-12 09:42:00,
2013-02-12 02:52:00,43.0,24.0,-100.00,South,184,2.0,5.0,47,0.00,,,0.00,1.000000,,2013-02-12 09:52:00,
2013-02-12 03:01:00,43.0,24.0,-100.00,South,184,2.0,5.0,47,0.00,,,0.00,1.000000,,2013-02-12 10:01:00,
2013-02-12 03:11:00,43.0,24.0,-100.00,South,184,2.0,5.0,47,0.00,,,0.00,1.000000,,2013-02-12 10:11:00,
2013-02-12 03:43:00,43.0,23.0,-100.00,East,80,3.0,5.0,44,0.00,,,0.00,1.000000,,2013-02-12 10:43:00,
2013-02-12 03:52:00,43.0,23.0,-100.00,East,80,3.0,5.0,44,0.00,,,0.00,1.000000,,2013-02-12 10:52:00,
2013-02-12 04:01:00,43.0,23.0,-100.00,East,80,3.0,5.0,44,0.00,,,0.00,1.000000,,2013-02-12 11:01:00,
2013-02-12 04:11:00,43.0,23.0,-100.00,East,80,3.0,5.0,44,0.00,,,0.00,1.000000,,2013-02-12 11:11:00,
2013-02-12 04:42:00,43.0,19.0,-100.00,NNE,30,3.0,7.0,38,0.00,,,0.00,1.000000,,2013-02-12 11:42:00,
2013-02-12 04:52:00,43.0,19.0,-100.00,NNE,30,3.0,7.0,38,0.00,,,0.00,1.000000,,2013-02-12 11:52:00,
2013-02-12 05:01:00,43.0,19.0,-100.00,NNE,30,3.0,7.0,38,0.00,,,0.00,1.000000,,2013-02-12 12:01:00,
2013-02-12 05:11:00,43.0,19.0,-100.00,NNE,30,3.0,7.0,38,0.00,,,0.00,1.000000,,2013-02-12 12:11:00,
2013-02-12 05:32:00,38.0,25.0,-100.00,WSW,257,0.0,8.0,60,0.00,,,0.00,1.000000,,2013-02-12 12:32:00,
2013-02-12 05:42:00,38.0,25.0,-100.00,WSW,257,0.0,8.0,60,0.00,,,0.00,1.000000,,2013-02-12 12:42:00,
2013-02-12 05:52:00,38.0,25.0,-100.00,WSW,257,0.0,8.0,60,0.00,,,0.00,1.000000,,2013-02-12 12:52:00,
2013-02-12 06:01:00,38.0,25.0,-100.00,WSW,257,0.0,8.0,60,0.00,,,0.00,1.000000,,2013-02-12 13:01:00,
2013-02-12 06:11:00,38.0,25.0,-100.00,WSW,257,0.0,8.0,60,0.00,,,0.00,1.000000,,2013-02-12 13:11:00,
2013-02-12 06:42:00,40.0,23.0,-100.00,WSW,256,2.0,5.0,50,0.00,,,0.00,1.000000,,2013-02-12 13:42:00,
2013-02-12 06:52:00,40.0,23.0,-100.00,WSW,256,2.0,5.0,50,0.00,,,0.00,1.000000,,2013-02-12 13:52:00,
2013-02-12 07:01:00,40.0,23.0,-100.00,WSW,256,2.0,5.0,50,0.00,,,0.00,1.000000,,2013-02-12 14:01:00,
2013-02-12 07:11:00,40.0,23.0,-100.00,WSW,256,2.0,5.0,50,0.00,,,0.00,1.000000,,2013-02-12 14:11:00,
2013-02-12 07:42:00,39.0,23.0,-100.00,SE,145,2.0,8.0,53,0.00,,,-99.99,1.000000,,2013-02-12 14:42:00,
2013-02-12 07:52:00,39.0,23.0,-100.00,SE,145,2.0,8.0,53,0.00,,,-99.99,1.000000,,2013-02-12 14:52:00,
2013-02-12 08:01:00,39.0,23.0,-100.00,SE,145,2.0,8.0,53,0.00,,,-99.99,1.000000,,2013-02-12 15:01:00,
2013-02-12 08:11:00,39.0,23.0,-100.00,SE,145,2.0,8.0,53,0.00,,,-99.99,1.000000,,2013-02-12 15:11:00,
2013-02-12 08:42:00,44.0,18.0,-100.00,ENE,74,4.0,6.0,35,0.00,,,0.00,52.000000,,2013-02-12 15:42:00,
2013-02-12 08:52:00,44.0,18.0,-100.00,ENE,74,4.0,6.0,35,0.00,,,0.00,52.000000,,2013-02-12 15:52:00,
2013-02-12 09:01:00,44.0,18.0,-100.00,ENE,74,4.0,6.0,35,0.00,,,0.00,52.000000,,2013-02-12 16:01:00,
2013-02-12 09:11:00,44.0,18.0,-100.00,ENE,74,4.0,6.0,35,0.00,,,0.00,52.000000,,2013-02-12 16:11:00,
2013-02-12 09:32:00,50.0,16.0,-100.00,NE,35,5.0,9.0,26,0.00,,,0.00,252.000000,,2013-02-12 16:32:00,
2013-02-12 09:42:00,50.0,16.0,-100.00,NE,35,5.0,9.0,26,0.00,,,0.00,252.000000,,2013-02-12 16:42:00,
2013-02-12 09:52:00,50.0,16.0,-100.00,NE,35,5.0,9.0,26,0.00,,,0.00,252.000000,,2013-02-12 16:52:00,
2013-02-12 10:01:00,50.0,16.0,-100.00,NE,35,5.0,9.0,26,0.00,,,0.00,252.000000,,2013-02-12 17:01:00,
2013-02-12 10:11:00,50.0,16.0,-100.00,NE,35,5.0,9.0,26,0.00,,,0.00,252.000000,,2013-02-12 17:11:00,
2013-02-12 10:42:00,55.0,20.0,-100.00,NE,50,4.0,10.0,25,0.00,,,0.00,461.000000,,2013-02-12 17:42:00,
2013-02-12 10:52:00,55.0,20.0,-100.00,NE,50,4.0,10.0,25,0.00,,,0.00,461.000000,,2013-02-12 17:52:00,
2013-02-12 11:01:00,55.0,20.0,-100.00,NE,50,4.0,10.0,25,0.00,,,0.00,461.000000,,2013-02-12 18:01:00,
2013-02-12 11:11:00,55.0,20.0,-100.00,NE,50,4.0,10.0,25,0.00,,,0.00,461.000000,,2013-02-12 18:11:00,
2013-02-12 11:42:00,58.0,13.0,-100.00,North,1,10.0,17.0,17,0.00,,,0.00,635.000000,,2013-02-12 18:42:00,
2013-02-12 11:52:00,58.0,13.0,-100.00,North,1,10.0,17.0,17,0.00,,,0.00,635.000000,,2013-02-12 18:52:00,
2013-02-12 12:02:00,58.0,13.0,-100.00,North,1,10.0,17.0,17,0.00,,,0.00,635.000000,,2013-02-12 19:02:00,
2013-02-12 12:11:00,58.0,13.0,-100.00,North,1,10.0,17.0,17,0.00,,,0.00,635.000000,,2013-02-12 19:11:00,
2013-02-12 12:42:00,60.0,11.0,-100.00,North,9,13.0,20.0,14,0.00,,,-99.99,754.000000,,2013-02-12 19:42:00,
2013-02-12 12:52:00,60.0,11.0,-100.00,North,9,13.0,20.0,14,0.00,,,-99.99,754.000000,,2013-02-12 19:52:00,
2013-02-12 13:01:00,60.0,11.0,-100.00,North,9,13.0,20.0,14,0.00,,,-99.99,754.000000,,2013-02-12 20:01:00,
2013-02-12 13:11:00,60.0,11.0,-100.00,North,9,13.0,20.0,14,0.00,,,-99.99,754.000000,,2013-02-12 20:11:00,
2013-02-12 13:42:00,61.0,10.0,-100.00,NNE,13,11.0,19.0,13,0.00,,,0.00,802.000000,,2013-02-12 20:42:00,
2013-02-12 13:52:00,61.0,10.0,-100.00,NNE,13,11.0,19.0,13,0.00,,,0.00,802.000000,,2013-02-12 20:52:00,
2013-02-12 14:01:00,61.0,10.0,-100.00,NNE,13,11.0,19.0,13,0.00,,,0.00,802.000000,,2013-02-12 21:01:00,
2013-02-12 14:11:00,61.0,10.0,-100.00,NNE,13,11.0,19.0,13,0.00,,,0.00,802.000000,,2013-02-12 21:11:00,
2013-02-12 14:42:00,62.0,11.0,-100.00,North,8,10.0,20.0,13,0.00,,,0.00,774.000000,,2013-02-12 21:42:00,
2013-02-12 14:52:00,62.0,11.0,-100.00,North,8,10.0,20.0,13,0.00,,,0.00,774.000000,,2013-02-12 21:52:00,
2013-02-12 15:01:00,62.0,11.0,-100.00,North,8,10.0,20.0,13,0.00,,,0.00,774.000000,,2013-02-12 22:01:00,
2013-02-12 15:12:00,62.0,11.0,-100.00,North,8,10.0,20.0,13,0.00,,,0.00,774.000000,,2013-02-12 22:12:00,
2013-02-12 15:42:00,63.0,8.0,-100.00,North,1,10.0,18.0,11,0.00,,,0.00,677.000000,,2013-02-12 22:42:00,
2013-02-12 15:52:00,63.0,8.0,-100.00,North,1,10.0,18.0,11,0.00,,,0.00,677.000000,,2013-02-12 22:52:00,
2013-02-12 16:01:00,63.0,8.0,-100.00,North,1,10.0,18.0,11,0.00,,,0.00,677.000000,,2013-02-12 23:01:00,
2013-02-12 16:11:00,63.0,8.0,-100.00,North,1,10.0,18.0,11,0.00,,,0.00,677.000000,,2013-02-12 23:11:00,
2013-02-12 16:42:00,63.0,6.0,-100.00,North,2,10.0,15.0,10,0.00,,,0.00,520.000000,,2013-02-12 23:42:00,
2013-02-12 16:52:00,63.0,6.0,-100.00,North,2,10.0,15.0,10,0.00,,,0.00,520.000000,,2013-02-12 23:52:00,
2013-02-12 17:02:00,63.0,6.0,-100.00,North,2,10.0,15.0,10,0.00,,,0.00,520.000000,,2013-02-13 00:02:00,
2013-02-12 17:11:00,63.0,6.0,-100.00,North,2,10.0,15.0,10,0.00,,,0.00,520.000000,,2013-02-13 00:11:00,
2013-02-12 17:42:00,62.0,5.0,-100.00,North,7,10.0,17.0,10,0.00,,,0.00,321.000000,,2013-02-13 00:42:00,
2013-02-12 17:52:00,62.0,5.0,-100.00,North,7,10.0,17.0,10,0.00,,,0.00,321.000000,,2013-02-13 00:52:00,
2013-02-12 18:01:00,62.0,5.0,-100.00,North,7,10.0,17.0,10,0.00,,,0.00,321.000000,,2013-02-13 01:01:00,
2013-02-12 18:11:00,62.0,5.0,-100.00,North,7,10.0,17.0,10,0.00,,,0.00,321.000000,,2013-02-13 01:11:00,
2013-02-12 19:42:00,57.0,10.0,-100.00,North,359,6.0,11.0,15,-99.99,,,0.00,3.000000,,2013-02-13 02:42:00,
2013-02-12 19:52:00,57.0,10.0,-100.00,North,359,6.0,11.0,15,-99.99,,,0.00,3.000000,,2013-02-13 02:52:00,
2013-02-12 20:01:00,57.0,10.0,-100.00,North,359,6.0,11.0,15,-99.99,,,0.00,3.000000,,2013-02-13 03:01:00,
2013-02-12 20:11:00,57.0,10.0,-100.00,North,359,6.0,11.0,15,-99.99,,,0.00,3.000000,,2013-02-13 03:11:00,
2013-02-12 20:42:00,55.0,11.0,-100.00,North,5,6.0,8.0,17,0.00,,,0.00,1.000000,,2013-02-13 03:42:00,
2013-02-12 20:52:00,55.0,11.0,-100.00,North,5,6.0,8.0,17,0.00,,,0.00,1.000000,,2013-02-13 03:52:00,
2013-02-12 21:01:00,55.0,11.0,-100.00,North,5,6.0,8.0,17,0.00,,,0.00,1.000000,,2013-02-13 04:01:00,
2013-02-12 21:11:00,55.0,11.0,-100.00,North,5,6.0,8.0,17,0.00,,,0.00,1.000000,,2013-02-13 04:11:00,
2013-02-12 21:42:00,54.0,14.0,-100.00,North,357,7.0,9.0,20,0.00,,,0.00,1.000000,,2013-02-13 04:42:00,
2013-02-12 21:52:00,54.0,14.0,-100.00,North,357,7.0,9.0,20,0.00,,,0.00,1.000000,,2013-02-13 04:52:00,
2013-02-12 22:01:00,54.0,14.0,-100.00,North,357,7.0,9.0,20,0.00,,,0.00,1.000000,,2013-02-13 05:01:00,
2013-02-12 22:11:00,54.0,14.0,-100.00,North,357,7.0,9.0,20,0.00,,,0.00,1.000000,,2013-02-13 05:11:00,
2013-02-12 22:32:00,54.0,13.0,-100.00,North,357,6.0,9.0,19,0.00,,,0.00,1.000000,,2013-02-13 05:32:00,
2013-02-12 22:42:00,54.0,13.0,-100.00,North,357,6.0,9.0,19,0.00,,,0.00,1.000000,,2013-02-13 05:42:00,
2013-02-12 22:52:00,54.0,13.0,-100.00,North,357,6.0,9.0,19,0.00,,,0.00,1.000000,,2013-02-13 05:52:00,
2013-02-12 23:02:00,54.0,13.0,-100.00,North,357,6.0,9.0,19,0.00,,,0.00,1.000000,,2013-02-13 06:02:00,
2013-02-12 23:11:00,54.0,13.0,-100.00,North,357,6.0,9.0,19,0.00,,,0.00,1.000000,,2013-02-13 06:11:00,
2013-02-12 23:32:00,50.0,15.0,-100.00,NNE,28,5.0,9.0,24,0.00,,,0.00,1.000000,,2013-02-13 06:32:00,
2013-02-12 23:42:00,50.0,15.0,-100.00,NNE,28,5.0,9.0,24,0.00,,,0.00,1.000000,,2013-02-13 06:42:00,
2013-02-12 23:52:00,50.0,15.0,-100.00,NNE,28,5.0,9.0,24,0.00,,,0.00,1.000000,,2013-02-13 06:52:00,